| time (UTC) | temp F | wind direction | speed knots | gust knots | rain 1hr in | rain 24hr in | rain mn in | humidity % | barometer mb |
| 20260906083003 | 86 | 200 | 0.0 | 3.5 | 0.00 | 0.00 | 0.00 | 42 | 1025.0 |
| 20260906081554 | 85 | 251 | 0.9 | 2.6 | 0.00 | 0.00 | 0.00 | 43 | 1025.0 |
| 20260906080006 | 83 | 248 | 0.0 | 2.6 | 0.00 | 0.00 | 0.00 | 44 | 1025.0 |
| 20260906074515 | 81 | 279 | 0.9 | 5.2 | 0.00 | 0.00 | 0.00 | 47 | 1025.1 |
| 20260906073027 | 80 | 195 | 2.6 | 6.1 | 0.00 | 0.00 | 0.00 | 48 | 1025.2 |
| 20260906071525 | 79 | 195 | 1.7 | 7.0 | 0.00 | 0.00 | 0.00 | 50 | 1025.1 |
| 20260906070032 | 79 | 161 | 0.9 | 6.1 | 0.00 | 0.00 | 0.00 | 51 | 1024.8 |
| 20260906064538 | 78 | 145 | 0.9 | 3.5 | 0.00 | 0.00 | 0.00 | 51 | 1024.6 |
| 20260906063051 | 77 | 181 | 0.9 | 3.5 | 0.00 | 0.00 | 0.00 | 53 | 1024.3 |
| 20260906061559 | 77 | 198 | 0.9 | 3.5 | 0.00 | 0.00 | 0.00 | 55 | 1024.2 |
| 20260906060008 | 75 | 209 | 0.9 | 3.5 | 0.00 | 0.00 | 0.00 | 56 | 1024.1 |
| 20260906054514 | 76 | 227 | 0.0 | 1.7 | 0.00 | 0.00 | 0.00 | 55 | 1024.1 |
| 20260906053016 | 75 | 219 | 1.7 | 2.6 | 0.00 | 0.00 | 0.00 | 54 | 1024.0 |
| 20260906051526 | 75 | 31 | 0.0 | 0.0 | 0.00 | 0.00 | 0.00 | 57 | 1024.0 |
| 20260906050047 | 72 | 31 | 0.0 | 0.0 | 0.00 | 0.00 | 0.00 | 59 | 1023.8 |
| 20260906044505 | 70 | 31 | 0.0 | 0.0 | 0.00 | 0.00 | 0.00 | 61 | 1023.7 |
| 20260906043028 | 68 | 31 | 0.0 | 1.7 | 0.00 | 0.00 | 0.00 | 63 | 1023.6 |
| 20260906041518 | 67 | 33 | 2.6 | 4.3 | 0.00 | 0.00 | 0.00 | 65 | 1023.3 |
| 20260906040030 | 68 | 49 | 2.6 | 3.5 | 0.00 | 0.00 | 0.00 | 64 | 1023.3 |
| 20260906034553 | 68 | 46 | 0.0 | 1.7 | 0.00 | 0.00 | 0.00 | 65 | 1023.3 |
| 20260906033045 | 67 | 46 | 1.7 | 6.1 | 0.00 | 0.00 | 0.00 | 64 | 1023.1 |
| 20260906031550 | 67 | 40 | 1.7 | 2.6 | 0.00 | 0.00 | 0.00 | 64 | 1023.0 |
| 20260906030058 | 67 | 44 | 0.9 | 2.6 | 0.00 | 0.00 | 0.00 | 63 | 1023.1 |
| 20260906024504 | 68 | 56 | 0.9 | 4.3 | 0.00 | 0.00 | 0.00 | 61 | 1023.0 |
| 20260906023017 | 69 | 55 | 0.9 | 2.6 | 0.00 | 0.00 | 0.00 | 60 | 1022.9 |
| 20260906021510 | 69 | 43 | 1.7 | 2.6 | 0.00 | 0.00 | 0.00 | 60 | 1022.9 |
| 20260906020024 | 69 | 46 | 1.7 | 4.3 | 0.00 | 0.00 | 0.00 | 59 | 1022.8 |
| 20260906014518 | 70 | 34 | 2.6 | 3.5 | 0.00 | 0.00 | 0.00 | 59 | 1022.9 |
| 20260906013030 | 69 | 58 | 3.5 | 7.0 | 0.00 | 0.00 | 0.00 | 60 | 1022.9 |
| 20260906011536 | 69 | 38 | 3.5 | 5.2 | 0.00 | 0.00 | 0.00 | 60 | 1023.0 |
| 20260906010118 | 70 | 46 | 0.0 | 2.6 | 0.00 | 0.00 | 0.00 | 60 | 1023.1 |
| 20260906004510 | 71 | 46 | 0.0 | 0.0 | 0.00 | 0.00 | 0.00 | 57 | 1023.0 |
| 20260906003036 | 70 | 46 | 0.0 | 0.0 | 0.00 | 0.00 | 0.00 | 57 | 1022.9 |
| 20260906001600 | 71 | 46 | 0.9 | 4.3 | 0.00 | 0.00 | 0.00 | 57 | 1022.8 |
| 20260906000056 | 71 | 51 | 2.6 | 3.5 | 0.00 | 0.00 | 0.00 | 56 | 1023.0 |
| 20260905234512 | 72 | 44 | 0.0 | 0.0 | 0.00 | 0.00 | 0.00 | 55 | 1023.1 |
| 20260905233023 | 73 | 44 | 0.0 | 3.5 | 0.00 | 0.00 | 0.00 | 53 | 1023.0 |
| 20260905231536 | 72 | 49 | 3.5 | 4.3 | 0.00 | 0.00 | 0.00 | 54 | 1023.1 |
| 20260905230042 | 73 | 32 | 0.0 | 3.5 | 0.00 | 0.00 | 0.00 | 53 | 1023.3 |
| 20260905224554 | 72 | 46 | 2.6 | 5.2 | 0.00 | 0.00 | 0.00 | 53 | 1023.2 |
| 20260905223100 | 74 | 50 | 2.6 | 4.3 | 0.00 | 0.00 | 0.00 | 50 | 1023.2 |
| 20260905221511 | 74 | 49 | 1.7 | 3.5 | 0.00 | 0.00 | 0.00 | 52 | 1023.4 |
| 20260905220018 | 74 | 52 | 1.7 | 5.2 | 0.00 | 0.00 | 0.00 | 53 | 1023.3 |
| 20260905214529 | 74 | 32 | 2.6 | 5.2 | 0.00 | 0.00 | 0.00 | 53 | 1023.2 |
| 20260905213036 | 75 | 4 | 3.5 | 5.2 | 0.00 | 0.00 | 0.00 | 52 | 1023.4 |
| 20260905211548 | 75 | 39 | 3.5 | 5.2 | 0.00 | 0.00 | 0.00 | 54 | 1023.3 |
| 20260905210115 | 75 | 39 | 3.5 | 5.2 | 0.00 | 0.00 | 0.00 | 55 | 1023.4 |
| 20260905204506 | 74 | 30 | 3.5 | 5.2 | 0.00 | 0.00 | 0.00 | 55 | 1023.4 |
| 20260905203016 | 75 | 5 | 3.5 | 5.2 | 0.00 | 0.00 | 0.00 | 55 | 1023.4 |
| 20260905201530 | 75 | 36 | 3.5 | 6.1 | 0.00 | 0.00 | 0.00 | 54 | 1023.5 |
| 20260905200101 | 74 | 38 | 2.6 | 6.1 | 0.00 | 0.00 | 0.00 | 55 | 1023.6 |
| 20260905194543 | 75 | 46 | 3.5 | 5.2 | 0.00 | 0.00 | 0.00 | 54 | 1023.7 |
| 20260905193049 | 76 | 37 | 2.6 | 5.2 | 0.00 | 0.00 | 0.00 | 54 | 1023.7 |
| 20260905191502 | 76 | 44 | 2.6 | 5.2 | 0.00 | 0.00 | 0.00 | 55 | 1023.6 |
| 20260905190007 | 77 | 46 | 5.2 | 6.1 | 0.00 | 0.00 | 0.00 | 53 | 1023.5 |
| 20260905184533 | 78 | 48 | 3.5 | 5.2 | 0.00 | 0.00 | 0.00 | 53 | 1023.5 |
| 20260905183037 | 78 | 53 | 3.5 | 4.3 | 0.00 | 0.00 | 0.00 | 54 | 1023.3 |
| 20260905181544 | 78 | 342 | 0.0 | 7.8 | 0.00 | 0.00 | 0.00 | 53 | 1023.3 |
| 20260905180045 | 79 | 50 | 7.0 | 9.6 | 0.00 | 0.00 | 0.00 | 52 | 1023.1 |
| 20260905174603 | 79 | 49 | 5.2 | 8.7 | 0.00 | 0.00 | 0.00 | 52 | 1023.0 |
| 20260905173008 | 80 | 51 | 5.2 | 9.6 | 0.00 | 0.00 | 0.00 | 51 | 1022.9 |
| 20260905171519 | 81 | 25 | 5.2 | 7.8 | 0.00 | 0.00 | 0.00 | 49 | 1022.7 |
| 20260905170028 | 82 | 44 | 6.1 | 12.2 | 0.00 | 0.00 | 0.00 | 47 | 1022.6 |
| 20260905164544 | 83 | 333 | 6.1 | 10.4 | 0.00 | 0.00 | 0.00 | 46 | 1022.4 |
| 20260905163047 | 84 | 359 | 6.1 | 10.4 | 0.00 | 0.00 | 0.00 | 44 | 1022.4 |
| 20260905161547 | 85 | 340 | 6.1 | 13.0 | 0.00 | 0.00 | 0.00 | 43 | 1022.4 |
| 20260905160053 | 86 | 1 | 6.1 | 13.0 | 0.00 | 0.00 | 0.00 | 44 | 1022.5 |
| 20260905160001 | 86 | 335 | 6.1 | 13.0 | 0.00 | 0.00 | 0.00 | 43 | 1022.5 |
| 20260905154507 | 87 | 352 | 7.0 | 13.9 | 0.00 | 0.00 | 0.00 | 43 | 1022.5 |
| 20260905153028 | 88 | 309 | 5.2 | 11.3 | 0.00 | 0.00 | 0.00 | 43 | 1022.4 |
| 20260905151525 | 88 | 314 | 8.7 | 13.9 | 0.00 | 0.00 | 0.00 | 39 | 1022.5 |
| 20260905150039 | 89 | 305 | 6.1 | 13.0 | 0.00 | 0.00 | 0.00 | 39 | 1022.5 |
| 20260905144535 | 90 | 4 | 7.0 | 13.0 | 0.00 | 0.00 | 0.00 | 38 | 1022.4 |
| 20260905143044 | 90 | 326 | 2.6 | 10.4 | 0.00 | 0.00 | 0.00 | 38 | 1022.4 |
| 20260905141547 | 91 | 311 | 3.5 | 7.0 | 0.00 | 0.00 | 0.00 | 37 | 1022.5 |
| 20260905140103 | 91 | 328 | 2.6 | 6.1 | 0.00 | 0.00 | 0.00 | 35 | 1022.5 |
| 20260905134517 | 92 | 28 | 3.5 | 7.8 | 0.00 | 0.00 | 0.00 | 35 | 1022.7 |
| 20260905133018 | 91 | 246 | 4.3 | 7.8 | 0.00 | 0.00 | 0.00 | 33 | 1022.7 |
| 20260905131526 | 91 | 193 | 3.5 | 7.0 | 0.00 | 0.00 | 0.00 | 32 | 1022.8 |
| 20260905130035 | 92 | 207 | 1.7 | 7.8 | 0.00 | 0.00 | 0.00 | 31 | 1022.9 |
| 20260905124540 | 91 | 244 | 0.9 | 7.8 | 0.00 | 0.00 | 0.00 | 31 | 1023.1 |
| 20260905123109 | 91 | 211 | 1.7 | 10.4 | 0.00 | 0.00 | 0.00 | 33 | 1023.3 |
| 20260905121501 | 91 | 221 | 4.3 | 6.1 | 0.00 | 0.00 | 0.00 | 33 | 1023.4 |
| 20260905120012 | 90 | 113 | 3.5 | 7.0 | 0.00 | 0.00 | 0.00 | 33 | 1023.7 |
| 20260905114521 | 90 | 172 | 5.2 | 8.7 | 0.00 | 0.00 | 0.00 | 34 | 1023.9 |
| 20260905113033 | 90 | 46 | 0.9 | 8.7 | 0.00 | 0.00 | 0.00 | 34 | 1024.0 |
| 20260905111538 | 91 | 283 | 1.7 | 5.2 | 0.00 | 0.00 | 0.00 | 35 | 1024.0 |
| 20260905110049 | 90 | 243 | 0.9 | 9.6 | 0.00 | 0.00 | 0.00 | 34 | 1024.0 |
| 20260905104555 | 89 | 168 | 6.1 | 10.4 | 0.00 | 0.00 | 0.00 | 34 | 1024.2 |
| 20260905103008 | 90 | 168 | 0.9 | 6.1 | 0.00 | 0.00 | 0.00 | 35 | 1024.2 |
| 20260905101549 | 89 | 68 | 3.5 | 7.0 | 0.00 | 0.00 | 0.00 | 38 | 1024.4 |
| 20260905100109 | 89 | 255 | 1.7 | 5.2 | 0.00 | 0.00 | 0.00 | 37 | 1024.6 |
| 20260905094507 | 89 | 264 | 1.7 | 4.3 | 0.00 | 0.00 | 0.00 | 38 | 1024.7 |
| 20260905093019 | 89 | 157 | 2.6 | 5.2 | 0.00 | 0.00 | 0.00 | 39 | 1024.7 |
| 20260905091525 | 87 | 139 | 3.5 | 6.1 | 0.00 | 0.00 | 0.00 | 41 | 1024.8 |
| 20260905090037 | 88 | 174 | 0.9 | 3.5 | 0.00 | 0.00 | 0.00 | 46 | 1024.9 |
| 20260905084548 | 86 | 131 | 1.7 | 5.2 | 0.00 | 0.00 | 0.00 | 49 | 1025.0 |